createdAt,value
2023-05-24T00:01:49.341Z,15.40
2023-05-24T00:04:20.288Z,15.29
2023-05-24T00:06:49.539Z,15.27
2023-05-24T00:09:19.032Z,15.39
2023-05-24T00:11:48.404Z,15.24
2023-05-24T00:14:15.445Z,15.27
2023-05-24T00:16:46.754Z,15.11
2023-05-24T00:19:18.661Z,15.11
2023-05-24T00:21:46.916Z,15.30
2023-05-24T00:24:17.604Z,15.19
2023-05-24T00:26:48.691Z,15.20
2023-05-24T00:29:17.927Z,15.20
2023-05-24T00:31:44.856Z,15.21
2023-05-24T00:34:11.937Z,15.16
2023-05-24T00:36:43.589Z,15.15
2023-05-24T00:39:10.677Z,15.23
2023-05-24T00:41:39.788Z,15.10
2023-05-24T00:44:11.809Z,15.19
2023-05-24T00:46:39.663Z,15.21
2023-05-24T00:49:11.904Z,15.09
2023-05-24T00:51:41.228Z,15.19
2023-05-24T00:54:08.262Z,15.18
2023-05-24T00:56:35.809Z,15.18
2023-05-24T00:59:03.247Z,15.04
2023-05-24T01:01:34.564Z,15.11
2023-05-24T01:04:02.117Z,15.13
2023-05-24T01:06:33.322Z,15.00
2023-05-24T01:09:03.296Z,15.16
2023-05-24T01:11:51.036Z,15.07
2023-05-24T01:14:26.933Z,15.15
2023-05-24T01:17:04.930Z,15.09
2023-05-24T01:19:51.410Z,15.09
2023-05-24T01:22:47.194Z,15.07
2023-05-24T01:25:39.189Z,15.06
2023-05-24T01:28:10.623Z,14.96
2023-05-24T01:30:41.990Z,14.98
2023-05-24T01:33:09.254Z,14.90
2023-05-24T01:35:40.659Z,15.05
2023-05-24T01:38:12.325Z,15.04
2023-05-24T01:40:40.767Z,14.88
2023-05-24T01:43:36.066Z,14.99
2023-05-24T01:46:21.250Z,14.98
2023-05-24T01:49:20.766Z,14.97
2023-05-24T01:52:02.295Z,14.97
2023-05-24T01:54:33.494Z,14.83
2023-05-24T01:57:05.639Z,14.93
2023-05-24T01:59:33.761Z,14.93
2023-05-24T02:02:01.818Z,14.87
2023-05-24T02:04:29.020Z,14.92
2023-05-24T02:06:55.834Z,14.70
2023-05-24T02:09:24.936Z,14.89
2023-05-24T02:11:51.928Z,14.93
2023-05-24T02:14:20.101Z,14.82
2023-05-24T02:16:51.062Z,14.93
2023-05-24T02:19:19.163Z,14.64
2023-05-24T02:21:48.415Z,14.76
2023-05-24T02:24:20.150Z,14.88
2023-05-24T02:26:47.123Z,14.85
2023-05-24T02:29:16.761Z,14.79
2023-05-24T02:31:43.668Z,14.78
2023-05-24T02:34:10.711Z,14.82
2023-05-24T02:36:37.688Z,14.81
2023-05-24T02:39:06.887Z,14.58
2023-05-24T02:41:33.829Z,14.87
2023-05-24T02:44:00.846Z,14.69
2023-05-24T02:46:27.836Z,14.75
2023-05-24T02:48:57.141Z,14.74
2023-05-24T02:51:26.818Z,14.65
2023-05-24T02:53:53.651Z,14.70
2023-05-24T02:56:22.254Z,14.79
2023-05-24T02:58:49.161Z,14.59
2023-05-24T03:01:16.277Z,14.63
2023-05-24T03:03:45.796Z,14.58
2023-05-24T03:06:15.586Z,14.71
2023-05-24T03:08:42.560Z,14.63
2023-05-24T03:11:09.497Z,14.64
2023-05-24T03:13:38.660Z,14.61
2023-05-24T03:16:08.701Z,14.58
2023-05-24T03:18:36.266Z,14.64
2023-05-24T03:21:03.201Z,14.63
2023-05-24T03:23:38.662Z,14.54
2023-05-24T03:26:07.604Z,14.50
2023-05-24T03:28:40.893Z,14.44
2023-05-24T03:31:08.627Z,14.51
2023-05-24T03:33:36.646Z,14.47
2023-05-24T03:36:04.461Z,14.49
2023-05-24T03:38:34.440Z,14.44
2023-05-24T03:41:03.986Z,14.40
2023-05-24T03:43:33.965Z,14.50
2023-05-24T03:46:03.549Z,14.48
2023-05-24T03:48:33.008Z,14.43
2023-05-24T03:51:04.629Z,14.45
2023-05-24T03:53:35.717Z,14.41
2023-05-24T03:56:02.853Z,14.17
2023-05-24T03:58:29.814Z,14.22
2023-05-24T04:00:56.833Z,14.30
2023-05-24T04:03:26.404Z,14.29
2023-05-24T04:05:55.219Z,14.30
2023-05-24T04:08:24.316Z,14.19
2023-05-24T04:10:51.194Z,14.17
2023-05-24T04:13:20.619Z,14.25
2023-05-24T04:15:52.268Z,14.28
2023-05-24T04:18:21.972Z,14.26
2023-05-24T04:20:51.242Z,14.05
2023-05-24T04:23:20.094Z,14.21
2023-05-24T04:25:47.344Z,14.15
2023-05-24T04:28:15.476Z,14.21
2023-05-24T04:30:42.595Z,14.13
2023-05-24T04:33:09.578Z,13.84
2023-05-24T04:35:36.533Z,14.12
2023-05-24T04:38:04.353Z,13.88
2023-05-24T04:40:35.653Z,13.99
2023-05-24T04:43:02.985Z,13.93
2023-05-24T04:45:33.409Z,13.92
2023-05-24T04:48:05.295Z,13.96
2023-05-24T04:50:35.534Z,13.87
2023-05-24T04:53:05.272Z,13.67
2023-05-24T04:55:32.865Z,13.76
2023-05-24T04:58:01.896Z,13.90
2023-05-24T05:00:28.795Z,13.83
2023-05-24T05:02:55.698Z,13.66
2023-05-24T05:05:25.006Z,13.79
2023-05-24T05:07:51.911Z,13.54
2023-05-24T05:10:23.607Z,13.76
2023-05-24T05:12:51.182Z,13.81
2023-05-24T05:15:18.122Z,13.73
2023-05-24T05:17:47.480Z,13.81
2023-05-24T05:20:17.037Z,13.79
2023-05-24T05:22:49.872Z,13.81
2023-05-24T05:25:19.303Z,13.80
2023-05-24T05:27:46.268Z,13.74
2023-05-24T05:30:13.494Z,13.70
2023-05-24T05:32:40.590Z,13.65
2023-05-24T05:35:08.224Z,13.73
2023-05-24T05:37:37.325Z,13.62
2023-05-24T05:40:07.354Z,13.63
2023-05-24T05:42:34.197Z,13.67
2023-05-24T05:45:01.275Z,13.53
2023-05-24T05:47:32.514Z,13.64
2023-05-24T05:49:59.390Z,13.61
2023-05-24T05:52:31.181Z,13.47
2023-05-24T05:54:59.413Z,13.28
2023-05-24T05:57:33.707Z,13.30
2023-05-24T06:00:03.606Z,13.38
2023-05-24T06:02:41.418Z,13.37
2023-05-24T06:05:09.120Z,13.22
2023-05-24T06:07:39.028Z,13.31
2023-05-24T06:10:08.716Z,13.31
2023-05-24T06:12:38.287Z,13.33
2023-05-24T06:15:06.899Z,13.35
2023-05-24T06:17:37.227Z,13.38
2023-05-24T06:20:12.275Z,13.31
2023-05-24T06:22:45.215Z,13.45
2023-05-24T06:25:15.112Z,13.42
2023-05-24T06:27:44.239Z,13.34
2023-05-24T06:30:11.678Z,13.47
2023-05-24T06:32:40.992Z,13.27
2023-05-24T06:35:13.096Z,13.42
2023-05-24T06:37:40.217Z,13.47
2023-05-24T06:40:10.452Z,13.81
2023-05-24T06:42:40.167Z,13.73
2023-05-24T06:45:11.982Z,13.76
2023-05-24T06:47:41.244Z,13.76
2023-05-24T06:50:12.931Z,13.81
2023-05-24T06:52:42.283Z,13.83
2023-05-24T06:55:16.959Z,13.87
2023-05-24T06:57:43.888Z,13.87
2023-05-24T07:00:18.231Z,13.83
2023-05-24T07:02:47.315Z,13.90
2023-05-24T07:05:16.530Z,13.95
2023-05-24T07:07:46.262Z,13.97
2023-05-24T07:10:20.453Z,13.91
2023-05-24T07:12:47.335Z,14.02
2023-05-24T07:15:21.537Z,14.01
2023-05-24T07:17:54.480Z,14.08
2023-05-24T07:20:26.250Z,14.09
2023-05-24T07:22:55.285Z,14.09
2023-05-24T07:25:29.204Z,14.08
2023-05-24T07:27:56.159Z,14.17
2023-05-24T07:33:05.230Z,14.27
2023-05-24T07:35:38.786Z,14.30
2023-05-24T07:38:07.965Z,14.23
2023-05-24T07:40:39.674Z,14.34
2023-05-24T07:43:11.268Z,14.36
2023-05-24T07:45:45.705Z,14.36
2023-05-24T07:48:14.953Z,14.35
2023-05-24T07:50:48.992Z,14.41
2023-05-24T07:53:16.257Z,14.38
2023-05-24T07:55:45.481Z,14.39
2023-05-24T07:58:14.827Z,14.44
2023-05-24T08:00:43.872Z,14.38
2023-05-24T08:03:20.360Z,14.42
2023-05-24T08:05:50.468Z,14.50
2023-05-24T08:08:20.575Z,14.49
2023-05-24T08:10:51.975Z,14.49
2023-05-24T08:13:21.355Z,14.50
2023-05-24T08:15:50.836Z,14.45
2023-05-24T08:18:17.682Z,14.52
2023-05-24T08:20:46.973Z,14.50
2023-05-24T08:23:19.279Z,14.53
2023-05-24T08:25:48.962Z,14.54
2023-05-24T08:28:17.150Z,14.48
2023-05-24T08:30:48.816Z,14.58
2023-05-24T08:33:26.362Z,14.55
2023-05-24T08:35:55.373Z,14.65
2023-05-24T08:38:24.594Z,14.68
2023-05-24T08:40:56.806Z,14.65
2023-05-24T08:43:27.364Z,14.68
2023-05-24T08:45:59.320Z,14.72
2023-05-24T08:48:31.547Z,14.73
2023-05-24T08:50:58.912Z,14.75
2023-05-24T08:53:28.130Z,14.55
2023-05-24T08:55:59.956Z,14.73
2023-05-24T08:58:35.181Z,14.75
2023-05-24T09:01:09.613Z,14.71
2023-05-24T09:03:41.045Z,14.76
2023-05-24T09:06:17.931Z,14.79
2023-05-24T09:08:47.847Z,14.75
2023-05-24T09:11:19.819Z,14.64
2023-05-24T09:13:48.226Z,14.70
2023-05-24T09:16:17.710Z,14.64
2023-05-24T09:18:47.191Z,14.68
2023-05-24T09:21:23.318Z,14.64
2023-05-24T09:23:50.687Z,14.71
2023-05-24T09:26:19.871Z,14.71
2023-05-24T09:28:50.910Z,14.73
2023-05-24T09:31:32.050Z,14.70
2023-05-24T09:33:58.897Z,14.74
2023-05-24T09:36:26.344Z,14.75
2023-05-24T09:39:10.145Z,14.77
2023-05-24T09:41:39.784Z,14.75
2023-05-24T09:44:08.914Z,14.71
2023-05-24T09:46:40.724Z,14.76
2023-05-24T09:49:10.125Z,14.76
2023-05-24T09:51:39.209Z,14.78
2023-05-24T09:54:11.449Z,14.67
2023-05-24T09:56:44.501Z,14.81
2023-05-24T09:59:15.199Z,14.82
2023-05-24T10:01:47.458Z,14.78
2023-05-24T10:04:17.037Z,14.81
2023-05-24T10:06:48.249Z,14.85
2023-05-24T10:09:15.425Z,14.84
2023-05-24T10:11:42.671Z,14.81
2023-05-24T10:14:10.047Z,14.82
2023-05-24T10:16:41.506Z,14.87
2023-05-24T10:19:08.538Z,14.80
2023-05-24T10:21:43.412Z,14.89
2023-05-24T10:24:14.213Z,14.88
2023-05-24T10:26:44.517Z,14.90
2023-05-24T10:29:26.849Z,14.91
2023-05-24T10:31:57.656Z,14.91
2023-05-24T10:34:24.676Z,14.92
2023-05-24T10:36:54.847Z,14.92
2023-05-24T10:39:23.161Z,14.90
2023-05-24T10:41:58.706Z,14.91
2023-05-24T10:44:33.677Z,14.76
2023-05-24T10:47:13.431Z,14.88
2023-05-24T10:49:52.037Z,14.80
2023-05-24T10:52:23.695Z,14.87
2023-05-24T10:55:05.727Z,14.87
2023-05-24T10:57:38.588Z,14.85
2023-05-24T11:00:33.722Z,14.87
2023-05-24T11:03:09.666Z,14.87
2023-05-24T11:05:50.291Z,14.85
2023-05-24T11:08:30.433Z,14.78
2023-05-24T11:11:31.365Z,14.83
2023-05-24T11:14:09.611Z,14.85
2023-05-24T11:16:46.027Z,14.83
2023-05-24T11:19:31.376Z,14.82
2023-05-24T11:22:04.413Z,14.82
2023-05-24T11:24:39.364Z,14.80
2023-05-24T11:27:14.366Z,14.79
2023-05-24T11:29:47.078Z,14.82
2023-05-24T11:32:21.445Z,14.83
2023-05-24T11:34:48.888Z,14.74
2023-05-24T11:37:18.337Z,14.81
2023-05-24T11:39:55.972Z,14.82
2023-05-24T11:42:23.926Z,14.66
2023-05-24T11:44:54.034Z,14.79
2023-05-24T11:47:23.694Z,14.76
2023-05-24T11:49:51.857Z,14.80
2023-05-24T11:52:18.780Z,14.81
2023-05-24T11:54:45.608Z,14.78
2023-05-24T11:57:14.806Z,14.84
2023-05-24T11:59:48.713Z,14.87
2023-05-24T12:02:23.655Z,14.82
2023-05-24T12:04:53.114Z,14.89
2023-05-24T12:07:24.512Z,14.91
2023-05-24T12:09:53.619Z,14.85
2023-05-24T12:12:30.609Z,14.91
2023-05-24T12:15:01.207Z,14.91
2023-05-24T12:17:32.618Z,14.96
2023-05-24T12:20:06.600Z,14.97
2023-05-24T12:22:35.984Z,14.99
2023-05-24T12:25:03.756Z,15.00
2023-05-24T12:27:36.574Z,15.02
2023-05-24T12:30:18.904Z,15.01
2023-05-24T12:32:49.541Z,15.02
2023-05-24T12:35:22.046Z,15.01
2023-05-24T12:37:49.588Z,15.02
2023-05-24T12:40:17.562Z,15.04
2023-05-24T12:42:49.605Z,15.03
2023-05-24T12:45:25.947Z,15.06
2023-05-24T12:47:58.561Z,15.00
2023-05-24T12:50:27.823Z,15.08
2023-05-24T12:53:01.394Z,15.12
2023-05-24T12:55:34.013Z,15.04
2023-05-24T12:58:09.715Z,15.13
2023-05-24T13:00:39.670Z,15.09
2023-05-24T13:03:11.449Z,15.03
2023-05-24T13:05:46.263Z,15.13
2023-05-24T13:08:20.684Z,15.14
2023-05-24T13:10:50.952Z,15.12
2023-05-24T13:13:20.309Z,15.13
2023-05-24T13:15:47.645Z,15.15
2023-05-24T13:18:17.558Z,15.16
2023-05-24T13:20:47.097Z,15.18
2023-05-24T13:23:21.248Z,15.21
2023-05-24T13:25:48.102Z,15.23
2023-05-24T13:28:20.599Z,15.25
2023-05-24T13:30:47.829Z,15.16
2023-05-24T13:33:19.641Z,15.22
2023-05-24T13:35:46.518Z,15.28
2023-05-24T13:38:18.134Z,15.22
2023-05-24T13:40:48.588Z,15.34
2023-05-24T13:43:18.266Z,15.34
2023-05-24T13:45:48.157Z,15.27
2023-05-24T13:48:17.422Z,15.35
2023-05-24T13:50:51.420Z,15.35
2023-05-24T13:53:18.753Z,15.37
2023-05-24T13:55:45.619Z,15.28
2023-05-24T13:58:15.835Z,15.39
2023-05-24T14:00:45.560Z,15.36
2023-05-24T14:03:13.260Z,15.37
2023-05-24T14:05:45.100Z,15.28
2023-05-24T14:08:16.815Z,15.28
2023-05-24T14:10:47.210Z,15.33
2023-05-24T14:13:39.557Z,15.34
2023-05-24T14:16:03.286Z,15.31
2023-05-24T14:18:30.283Z,15.29
2023-05-24T14:21:01.696Z,15.28
2023-05-24T14:23:32.109Z,15.28
2023-05-24T14:26:02.071Z,15.29
2023-05-24T14:28:31.470Z,15.30
2023-05-24T14:30:58.325Z,15.33
2023-05-24T14:33:25.272Z,15.33
2023-05-24T14:35:54.768Z,15.38
2023-05-24T14:38:26.473Z,15.40
2023-05-24T14:40:59.863Z,15.41
2023-05-24T14:43:29.318Z,15.41
2023-05-24T14:45:56.696Z,15.43
2023-05-24T14:48:25.693Z,15.44
2023-05-24T14:50:57.821Z,15.49
2023-05-24T14:53:32.157Z,15.50
2023-05-24T14:56:05.198Z,15.54
2023-05-24T14:58:34.421Z,15.56
2023-05-24T15:01:08.777Z,15.61
2023-05-24T15:03:40.815Z,15.59
2023-05-24T15:06:10.170Z,15.63
2023-05-24T15:08:41.850Z,15.62
2023-05-24T15:11:11.474Z,15.60
2023-05-24T15:13:38.755Z,15.62
2023-05-24T15:16:05.815Z,15.64
2023-05-24T15:18:34.917Z,15.69
2023-05-24T15:21:04.289Z,15.71
2023-05-24T15:23:36.672Z,15.75
2023-05-24T15:26:08.426Z,15.77
2023-05-24T15:28:37.824Z,15.80
2023-05-24T15:31:09.335Z,15.80
2023-05-24T15:33:38.633Z,15.83
2023-05-24T15:36:08.150Z,15.85
2023-05-24T15:38:38.986Z,15.83
2023-05-24T15:41:08.180Z,15.86
2023-05-24T15:43:37.541Z,15.86
2023-05-24T15:46:09.298Z,15.62
2023-05-24T15:48:36.172Z,15.89
2023-05-24T15:53:40.391Z,15.85
2023-05-24T15:56:12.062Z,15.85
2023-05-24T15:58:44.234Z,15.84
2023-05-24T16:01:13.381Z,15.71
2023-05-24T16:03:44.699Z,15.80
2023-05-24T16:06:16.517Z,15.95
2023-05-24T16:08:46.074Z,15.94
2023-05-24T16:11:13.610Z,15.96
2023-05-24T16:13:40.614Z,16.01
2023-05-24T16:16:09.969Z,16.03
2023-05-24T16:18:41.767Z,16.03
2023-05-24T16:21:11.534Z,15.93
2023-05-24T16:23:43.464Z,16.03
2023-05-24T16:26:15.484Z,16.02
2023-05-24T16:28:49.356Z,16.06
2023-05-24T16:31:23.190Z,16.05
2023-05-24T16:33:50.083Z,16.03
2023-05-24T16:36:23.980Z,16.09
2023-05-24T16:38:55.601Z,16.11
2023-05-24T16:41:22.419Z,16.12
2023-05-24T16:43:51.599Z,16.13
2023-05-24T16:46:23.971Z,16.06
2023-05-24T16:48:50.976Z,16.07
2023-05-24T16:51:22.468Z,16.11
2023-05-24T16:53:54.131Z,16.08
2023-05-24T16:56:24.015Z,16.05
2023-05-24T16:58:53.295Z,16.11
2023-05-24T17:01:24.884Z,16.04
2023-05-24T17:03:54.314Z,16.13
2023-05-24T17:06:25.942Z,16.14
2023-05-24T17:08:52.779Z,16.16
2023-05-24T17:11:20.127Z,16.17
2023-05-24T17:13:50.762Z,16.18
2023-05-24T17:16:28.770Z,16.17
2023-05-24T17:18:58.666Z,16.15
2023-05-24T17:21:30.958Z,16.16
2023-05-24T17:24:02.565Z,16.14
2023-05-24T17:26:29.399Z,16.14
2023-05-24T17:28:56.618Z,16.14
2023-05-24T17:31:25.894Z,16.12
2023-05-24T17:33:55.174Z,16.12
2023-05-24T17:36:33.685Z,16.10
2023-05-24T17:39:04.900Z,16.02
2023-05-24T17:41:34.044Z,15.97
2023-05-24T17:44:05.986Z,16.07
2023-05-24T17:46:36.815Z,15.99
2023-05-24T17:49:07.193Z,16.04
2023-05-24T17:51:39.248Z,16.06
2023-05-24T17:54:06.526Z,16.05
2023-05-24T17:56:38.067Z,16.03
2023-05-24T17:59:11.345Z,16.03
2023-05-24T18:01:44.186Z,16.00
2023-05-24T18:04:16.096Z,15.92
2023-05-24T18:06:42.989Z,15.99
2023-05-24T18:09:10.551Z,15.99
2023-05-24T18:11:39.820Z,15.95
2023-05-24T18:14:08.863Z,15.92
2023-05-24T18:16:40.655Z,15.76
2023-05-24T18:19:07.713Z,15.76
2023-05-24T18:21:39.052Z,15.76
2023-05-24T18:24:06.078Z,15.70
2023-05-24T18:26:40.595Z,15.67
2023-05-24T18:29:12.782Z,15.61
2023-05-24T18:31:44.418Z,15.58
2023-05-24T18:34:15.937Z,15.52
2023-05-24T18:36:47.722Z,15.47
2023-05-24T18:39:14.695Z,15.44
2023-05-24T18:41:46.285Z,15.33
2023-05-24T18:44:17.754Z,15.35
2023-05-24T18:46:47.409Z,15.30
2023-05-24T18:49:19.028Z,15.28
2023-05-24T18:51:50.325Z,15.24
2023-05-24T18:54:19.717Z,15.21
2023-05-24T18:56:51.219Z,15.16
2023-05-24T18:59:18.175Z,15.07
2023-05-24T19:01:53.228Z,15.11
2023-05-24T19:04:24.947Z,15.06
2023-05-24T19:06:54.266Z,15.04
2023-05-24T19:09:26.869Z,15.01
2023-05-24T19:11:59.308Z,15.02
2023-05-24T19:14:26.363Z,14.99
2023-05-24T19:16:55.745Z,14.98
2023-05-24T19:19:22.670Z,14.96
2023-05-24T19:21:53.796Z,14.94
2023-05-24T19:24:24.465Z,14.93
2023-05-24T19:26:56.194Z,14.91
2023-05-24T19:29:25.521Z,14.88
2023-05-24T19:31:54.718Z,14.87
2023-05-24T19:34:28.739Z,14.87
2023-05-24T19:36:56.212Z,14.82
2023-05-24T19:39:27.618Z,14.78
2023-05-24T19:41:59.229Z,14.77
2023-05-24T19:44:31.460Z,14.68
2023-05-24T19:47:00.584Z,14.68
2023-05-24T19:49:36.920Z,14.73
2023-05-24T19:52:09.910Z,14.70
2023-05-24T19:54:39.657Z,14.68
2023-05-24T19:57:09.527Z,14.58
2023-05-24T19:59:36.340Z,14.67
2023-05-24T20:02:07.944Z,14.66
2023-05-24T20:04:34.820Z,14.65
2023-05-24T20:07:02.041Z,14.56
2023-05-24T20:09:33.566Z,14.62
2023-05-24T20:12:09.791Z,14.54
2023-05-24T20:14:42.006Z,14.51
2023-05-24T20:17:17.757Z,14.57
2023-05-24T20:19:44.679Z,14.44
2023-05-24T20:22:17.069Z,14.50
2023-05-24T20:24:46.462Z,14.49
2023-05-24T20:27:18.086Z,14.45
2023-05-24T20:29:45.416Z,14.39
2023-05-24T20:32:12.321Z,14.40
2023-05-24T20:34:41.501Z,14.33
2023-05-24T20:37:08.432Z,14.31
2023-05-24T20:39:37.557Z,14.27
2023-05-24T20:42:09.440Z,14.14
2023-05-24T20:44:38.748Z,14.18
2023-05-24T20:47:05.811Z,14.26
2023-05-24T20:49:35.040Z,14.18
2023-05-24T20:52:04.748Z,14.02
2023-05-24T20:54:31.558Z,14.05
2023-05-24T20:56:59.836Z,13.85
2023-05-24T20:59:26.872Z,13.99
2023-05-24T21:01:55.997Z,14.02
2023-05-24T21:04:25.162Z,13.95
2023-05-24T21:06:52.090Z,13.95
2023-05-24T21:09:26.041Z,13.96
2023-05-24T21:11:52.950Z,13.69
2023-05-24T21:14:24.268Z,13.85
2023-05-24T21:16:55.509Z,13.84
2023-05-24T21:19:24.629Z,13.73
2023-05-24T21:21:54.044Z,13.64
2023-05-24T21:24:20.973Z,13.60
2023-05-24T21:26:47.817Z,13.67
2023-05-24T21:29:14.689Z,13.67
2023-05-24T21:31:41.720Z,13.70
2023-05-24T21:34:08.675Z,13.61
2023-05-24T21:36:40.254Z,13.47
2023-05-24T21:39:09.916Z,13.44
2023-05-24T21:41:39.784Z,13.46
2023-05-24T21:44:08.302Z,13.62
2023-05-24T21:46:35.337Z,13.47
2023-05-24T21:49:02.405Z,13.42
2023-05-24T21:51:29.288Z,13.50
2023-05-24T21:53:56.416Z,13.49
2023-05-24T21:56:27.270Z,13.40
2023-05-24T21:58:56.398Z,13.36
2023-05-24T22:01:23.327Z,13.42
2023-05-24T22:03:50.281Z,13.31
2023-05-24T22:06:17.261Z,13.31
2023-05-24T22:08:46.731Z,13.23
2023-05-24T22:11:18.516Z,13.31
2023-05-24T22:13:45.434Z,13.20
2023-05-24T22:16:16.873Z,13.19
2023-05-24T22:18:46.043Z,13.18
2023-05-24T22:21:14.558Z,13.10
2023-05-24T22:23:44.183Z,13.20
2023-05-24T22:26:18.348Z,13.15
2023-05-24T22:28:56.279Z,13.17
2023-05-24T22:31:24.130Z,13.11
2023-05-24T22:33:53.498Z,13.11
2023-05-24T22:36:25.519Z,13.04
2023-05-24T22:38:52.361Z,13.03
2023-05-24T22:41:22.730Z,12.95
2023-05-24T22:43:52.228Z,13.02
2023-05-24T22:46:19.138Z,13.03
2023-05-24T22:48:50.059Z,12.98
2023-05-24T22:51:22.405Z,12.99
2023-05-24T22:53:52.966Z,12.93
2023-05-24T22:56:19.857Z,12.90
2023-05-24T22:58:46.761Z,12.79
2023-05-24T23:01:16.643Z,12.92
2023-05-24T23:03:46.358Z,12.90
2023-05-24T23:06:16.311Z,12.83
2023-05-24T23:08:43.524Z,12.82
2023-05-24T23:11:10.710Z,12.83
2023-05-24T23:13:42.578Z,12.88
2023-05-24T23:16:18.222Z,12.90
2023-05-24T23:18:45.957Z,12.74
2023-05-24T23:21:18.663Z,12.69
2023-05-24T23:23:50.511Z,12.74
2023-05-24T23:26:17.291Z,12.73
2023-05-24T23:28:44.728Z,12.85
2023-05-24T23:31:13.938Z,12.78
2023-05-24T23:33:43.306Z,12.82
2023-05-24T23:36:12.444Z,12.77
2023-05-24T23:38:47.123Z,12.68
2023-05-24T23:41:16.624Z,12.73
2023-05-24T23:43:45.903Z,12.47
2023-05-24T23:46:20.080Z,12.69
2023-05-24T23:48:46.997Z,12.73
2023-05-24T23:51:16.306Z,12.68
2023-05-24T23:53:45.813Z,12.55
2023-05-24T23:56:14.981Z,12.74
2023-05-24T23:58:42.092Z,12.74
